CYUY

Rouyn Noranda Airport

ICAO Code CYUY
IATA Code YUY
Name Rouyn Noranda Airport
Location Rouyn-Noranda, Quebec, CA
Elevation 988 Feet / 301.1 Meters
Latitude 48.20611111
Longitude -78.83555556
METAR CYUY 080700Z 07002KT 15SM FEW025 M02/M03 A2992 RMK SC1 SC TR SLP147
Extra information Display Charts and CFS
Display NOTAMS
Runway Length Width Surface Elevation
08 7500 ft 150 ft ASP 973 ft
26 7500 ft 150 ft ASP 988 ft

Mandatory Routes

Rouyn Noranda Airport

Direction Destination Level Remark Type Route
DEP TO SE L RNAV YUY B7 YMW T717 BEMOG